sensor_id;sensor_type;location;lat;lon;timestamp;temperature;humidity
65044;DHT22;51617;48.158;16.464;2022-10-16T00:00:43;14.20;99.90
65044;DHT22;51617;48.158;16.464;2022-10-16T00:03:09;14.20;99.90
65044;DHT22;51617;48.158;16.464;2022-10-16T00:05:38;14.30;99.90
65044;DHT22;51617;48.158;16.464;2022-10-16T00:08:05;14.30;99.90
65044;DHT22;51617;48.158;16.464;2022-10-16T00:10:30;14.20;99.90
65044;DHT22;51617;48.158;16.464;2022-10-16T00:12:56;14.00;99.90
65044;DHT22;51617;48.158;16.464;2022-10-16T00:15:21;16.20;99.90
65044;DHT22;51617;48.158;16.464;2022-10-16T00:17:47;13.80;99.90
65044;DHT22;51617;48.158;16.464;2022-10-16T00:20:12;13.80;99.90
65044;DHT22;51617;48.158;16.464;2022-10-16T00:22:38;13.70;99.90
65044;DHT22;51617;48.158;16.464;2022-10-16T00:25:03;13.70;99.90
65044;DHT22;51617;48.158;16.464;2022-10-16T00:27:29;13.70;99.90
65044;DHT22;51617;48.158;16.464;2022-10-16T00:29:54;13.70;99.90
65044;DHT22;51617;48.158;16.464;2022-10-16T00:32:20;13.80;99.90
65044;DHT22;51617;48.158;16.464;2022-10-16T00:34:46;13.80;99.90
65044;DHT22;51617;48.158;16.464;2022-10-16T00:37:12;13.80;99.90
65044;DHT22;51617;48.158;16.464;2022-10-16T00:39:37;13.90;99.90
65044;DHT22;51617;48.158;16.464;2022-10-16T00:42:03;13.90;99.90
65044;DHT22;51617;48.158;16.464;2022-10-16T00:49:53;13.90;99.90
65044;DHT22;51617;48.158;16.464;2022-10-16T00:52:21;13.90;99.90
65044;DHT22;51617;48.158;16.464;2022-10-16T00:54:47;13.80;99.90
65044;DHT22;51617;48.158;16.464;2022-10-16T00:57:14;13.70;99.90
65044;DHT22;51617;48.158;16.464;2022-10-16T00:59:40;13.60;99.90
65044;DHT22;51617;48.158;16.464;2022-10-16T01:02:06;13.40;99.90
65044;DHT22;51617;48.158;16.464;2022-10-16T01:04:37;13.30;99.90
65044;DHT22;51617;48.158;16.464;2022-10-16T01:09:32;13.30;99.90
65044;DHT22;51617;48.158;16.464;2022-10-16T01:12:06;13.40;99.90
65044;DHT22;51617;48.158;16.464;2022-10-16T01:14:42;13.40;99.90
65044;DHT22;51617;48.158;16.464;2022-10-16T01:17:12;13.50;99.90
65044;DHT22;51617;48.158;16.464;2022-10-16T01:22:09;13.50;99.90
65044;DHT22;51617;48.158;16.464;2022-10-16T01:24:41;13.40;99.90
65044;DHT22;51617;48.158;16.464;2022-10-16T01:27:13;13.40;99.90
65044;DHT22;51617;48.158;16.464;2022-10-16T01:32:10;13.40;99.90
65044;DHT22;51617;48.158;16.464;2022-10-16T01:34:40;13.30;99.90
65044;DHT22;51617;48.158;16.464;2022-10-16T01:37:10;13.40;99.90
65044;DHT22;51617;48.158;16.464;2022-10-16T01:39:37;13.30;99.90
65044;DHT22;51617;48.158;16.464;2022-10-16T01:42:06;13.10;99.90
65044;DHT22;51617;48.158;16.464;2022-10-16T01:44:33;13.10;99.90
65044;DHT22;51617;48.158;16.464;2022-10-16T01:47:01;13.10;99.90
65044;DHT22;51617;48.158;16.464;2022-10-16T01:49:29;13.10;99.90
65044;DHT22;51617;48.158;16.464;2022-10-16T01:51:56;13.10;99.90
65044;DHT22;51617;48.158;16.464;2022-10-16T01:54:25;13.20;99.90
65044;DHT22;51617;48.158;16.464;2022-10-16T01:56:52;13.20;99.90
65044;DHT22;51617;48.158;16.464;2022-10-16T01:59:20;13.10;99.90
65044;DHT22;51617;48.158;16.464;2022-10-16T02:01:50;13.00;99.90
65044;DHT22;51617;48.158;16.464;2022-10-16T02:06:43;13.00;99.90
65044;DHT22;51617;48.158;16.464;2022-10-16T02:09:09;13.00;99.90
65044;DHT22;51617;48.158;16.464;2022-10-16T02:11:34;12.80;99.90
65044;DHT22;51617;48.158;16.464;2022-10-16T02:14:06;12.70;99.90
65044;DHT22;51617;48.158;16.464;2022-10-16T02:16:33;12.80;99.90
65044;DHT22;51617;48.158;16.464;2022-10-16T02:18:59;12.80;99.90
65044;DHT22;51617;48.158;16.464;2022-10-16T02:24:08;13.10;99.90
65044;DHT22;51617;48.158;16.464;2022-10-16T02:26:40;13.20;99.90
65044;DHT22;51617;48.158;16.464;2022-10-16T02:29:08;13.30;99.90
65044;DHT22;51617;48.158;16.464;2022-10-16T02:31:38;13.30;99.90
65044;DHT22;51617;48.158;16.464;2022-10-16T02:34:06;13.40;99.90
65044;DHT22;51617;48.158;16.464;2022-10-16T02:36:32;13.30;99.90
65044;DHT22;51617;48.158;16.464;2022-10-16T02:38:59;13.30;99.90
65044;DHT22;51617;48.158;16.464;2022-10-16T02:41:26;13.30;99.90
65044;DHT22;51617;48.158;16.464;2022-10-16T02:43:52;13.30;99.90
65044;DHT22;51617;48.158;16.464;2022-10-16T02:46:19;13.30;99.90
65044;DHT22;51617;48.158;16.464;2022-10-16T02:48:44;13.30;99.90
65044;DHT22;51617;48.158;16.464;2022-10-16T02:51:10;13.30;99.90
65044;DHT22;51617;48.158;16.464;2022-10-16T02:53:35;13.20;99.90
65044;DHT22;51617;48.158;16.464;2022-10-16T02:56:01;13.20;99.90
65044;DHT22;51617;48.158;16.464;2022-10-16T02:58:26;13.20;99.90
65044;DHT22;51617;48.158;16.464;2022-10-16T03:00:52;13.20;99.90
65044;DHT22;51617;48.158;16.464;2022-10-16T03:03:17;13.20;99.90
65044;DHT22;51617;48.158;16.464;2022-10-16T03:05:43;13.20;99.90
65044;DHT22;51617;48.158;16.464;2022-10-16T03:08:11;13.20;99.90
65044;DHT22;51617;48.158;16.464;2022-10-16T03:10:36;13.20;99.90
65044;DHT22;51617;48.158;16.464;2022-10-16T03:13:02;13.20;99.90
65044;DHT22;51617;48.158;16.464;2022-10-16T03:15:28;13.30;99.90
65044;DHT22;51617;48.158;16.464;2022-10-16T03:17:54;13.40;99.90
65044;DHT22;51617;48.158;16.464;2022-10-16T03:20:19;13.40;99.90
65044;DHT22;51617;48.158;16.464;2022-10-16T03:22:45;13.30;99.90
65044;DHT22;51617;48.158;16.464;2022-10-16T03:25:10;13.30;99.90
65044;DHT22;51617;48.158;16.464;2022-10-16T03:27:36;13.20;99.90
65044;DHT22;51617;48.158;16.464;2022-10-16T03:30:02;13.20;99.90
65044;DHT22;51617;48.158;16.464;2022-10-16T03:32:27;13.20;99.90
65044;DHT22;51617;48.158;16.464;2022-10-16T03:34:53;13.30;99.90
65044;DHT22;51617;48.158;16.464;2022-10-16T03:37:19;13.20;99.90
65044;DHT22;51617;48.158;16.464;2022-10-16T03:39:45;13.20;99.90
65044;DHT22;51617;48.158;16.464;2022-10-16T03:42:10;13.10;99.90
65044;DHT22;51617;48.158;16.464;2022-10-16T03:44:36;13.10;99.90
65044;DHT22;51617;48.158;16.464;2022-10-16T03:47:01;13.00;99.90
65044;DHT22;51617;48.158;16.464;2022-10-16T03:49:27;12.90;99.90
65044;DHT22;51617;48.158;16.464;2022-10-16T03:51:52;12.90;99.90
65044;DHT22;51617;48.158;16.464;2022-10-16T03:54:18;12.90;99.90
65044;DHT22;51617;48.158;16.464;2022-10-16T03:56:43;12.80;99.90
65044;DHT22;51617;48.158;16.464;2022-10-16T03:59:09;12.80;99.90
65044;DHT22;51617;48.158;16.464;2022-10-16T04:01:34;12.70;99.90
65044;DHT22;51617;48.158;16.464;2022-10-16T04:04:00;12.70;99.90
65044;DHT22;51617;48.158;16.464;2022-10-16T04:06:25;12.70;99.90
65044;DHT22;51617;48.158;16.464;2022-10-16T04:08:51;12.60;99.90
65044;DHT22;51617;48.158;16.464;2022-10-16T04:11:16;12.70;99.90
65044;DHT22;51617;48.158;16.464;2022-10-16T04:13:42;12.60;99.90
65044;DHT22;51617;48.158;16.464;2022-10-16T04:16:08;12.50;99.90
65044;DHT22;51617;48.158;16.464;2022-10-16T04:18:34;12.50;99.90
65044;DHT22;51617;48.158;16.464;2022-10-16T04:21:04;12.40;99.90
65044;DHT22;51617;48.158;16.464;2022-10-16T04:23:29;12.40;99.90
65044;DHT22;51617;48.158;16.464;2022-10-16T04:25:55;12.50;99.90
65044;DHT22;51617;48.158;16.464;2022-10-16T04:28:20;12.60;99.90
65044;DHT22;51617;48.158;16.464;2022-10-16T04:30:46;12.60;99.90
65044;DHT22;51617;48.158;16.464;2022-10-16T04:33:11;12.60;99.90
65044;DHT22;51617;48.158;16.464;2022-10-16T04:35:38;12.60;99.90
65044;DHT22;51617;48.158;16.464;2022-10-16T04:38:03;12.60;99.90
65044;DHT22;51617;48.158;16.464;2022-10-16T04:40:29;12.40;99.90
65044;DHT22;51617;48.158;16.464;2022-10-16T04:42:58;12.40;99.90
65044;DHT22;51617;48.158;16.464;2022-10-16T04:45:24;12.40;99.90
65044;DHT22;51617;48.158;16.464;2022-10-16T04:47:49;12.50;99.90
65044;DHT22;51617;48.158;16.464;2022-10-16T04:50:15;12.60;99.90
65044;DHT22;51617;48.158;16.464;2022-10-16T04:52:40;12.60;99.90
65044;DHT22;51617;48.158;16.464;2022-10-16T04:55:06;12.60;99.90
65044;DHT22;51617;48.158;16.464;2022-10-16T04:57:32;12.60;99.90
65044;DHT22;51617;48.158;16.464;2022-10-16T04:59:58;12.70;99.90
65044;DHT22;51617;48.158;16.464;2022-10-16T05:02:24;12.70;99.90
65044;DHT22;51617;48.158;16.464;2022-10-16T05:04:50;12.90;99.90
65044;DHT22;51617;48.158;16.464;2022-10-16T05:07:15;13.00;99.90
65044;DHT22;51617;48.158;16.464;2022-10-16T05:09:41;13.10;99.90
65044;DHT22;51617;48.158;16.464;2022-10-16T05:12:06;13.20;99.90
65044;DHT22;51617;48.158;16.464;2022-10-16T05:14:32;13.30;99.90
65044;DHT22;51617;48.158;16.464;2022-10-16T05:16:57;13.30;99.90
65044;DHT22;51617;48.158;16.464;2022-10-16T05:19:24;13.40;99.90
65044;DHT22;51617;48.158;16.464;2022-10-16T05:21:49;13.50;99.90
65044;DHT22;51617;48.158;16.464;2022-10-16T05:24:15;13.50;99.90
65044;DHT22;51617;48.158;16.464;2022-10-16T05:26:41;13.60;99.90
65044;DHT22;51617;48.158;16.464;2022-10-16T05:29:06;13.60;99.90
65044;DHT22;51617;48.158;16.464;2022-10-16T05:31:32;13.50;99.90
65044;DHT22;51617;48.158;16.464;2022-10-16T05:33:58;13.70;99.90
65044;DHT22;51617;48.158;16.464;2022-10-16T05:36:24;13.70;99.90
65044;DHT22;51617;48.158;16.464;2022-10-16T05:38:50;13.60;99.90
65044;DHT22;51617;48.158;16.464;2022-10-16T05:41:16;13.70;99.90
65044;DHT22;51617;48.158;16.464;2022-10-16T05:43:46;13.80;99.90
65044;DHT22;51617;48.158;16.464;2022-10-16T05:46:12;13.80;99.90
65044;DHT22;51617;48.158;16.464;2022-10-16T05:48:37;13.70;99.90
65044;DHT22;51617;48.158;16.464;2022-10-16T05:51:04;13.80;99.90
65044;DHT22;51617;48.158;16.464;2022-10-16T05:53:30;13.90;99.90
65044;DHT22;51617;48.158;16.464;2022-10-16T05:55:56;13.90;99.90
65044;DHT22;51617;48.158;16.464;2022-10-16T05:58:22;14.00;99.90
65044;DHT22;51617;48.158;16.464;2022-10-16T06:00:58;14.00;99.90
65044;DHT22;51617;48.158;16.464;2022-10-16T06:03:23;13.90;99.90
65044;DHT22;51617;48.158;16.464;2022-10-16T06:05:49;14.00;99.90
65044;DHT22;51617;48.158;16.464;2022-10-16T06:08:15;13.90;99.90
65044;DHT22;51617;48.158;16.464;2022-10-16T06:10:41;13.90;99.90
65044;DHT22;51617;48.158;16.464;2022-10-16T06:13:06;13.90;99.90
65044;DHT22;51617;48.158;16.464;2022-10-16T06:15:32;14.00;99.90
65044;DHT22;51617;48.158;16.464;2022-10-16T06:17:57;14.00;99.90
65044;DHT22;51617;48.158;16.464;2022-10-16T06:20:23;14.10;99.90
65044;DHT22;51617;48.158;16.464;2022-10-16T06:22:48;14.20;99.90
65044;DHT22;51617;48.158;16.464;2022-10-16T06:25:14;14.10;99.90
65044;DHT22;51617;48.158;16.464;2022-10-16T06:27:40;14.20;99.90
65044;DHT22;51617;48.158;16.464;2022-10-16T06:30:06;14.30;99.90
65044;DHT22;51617;48.158;16.464;2022-10-16T06:32:32;14.20;99.90
65044;DHT22;51617;48.158;16.464;2022-10-16T06:34:57;14.20;99.90
65044;DHT22;51617;48.158;16.464;2022-10-16T06:37:23;14.30;99.90
65044;DHT22;51617;48.158;16.464;2022-10-16T06:39:48;14.30;99.90
65044;DHT22;51617;48.158;16.464;2022-10-16T06:42:14;14.30;99.90
65044;DHT22;51617;48.158;16.464;2022-10-16T06:44:40;14.30;99.90
65044;DHT22;51617;48.158;16.464;2022-10-16T06:47:06;14.40;99.90
65044;DHT22;51617;48.158;16.464;2022-10-16T06:49:31;14.50;99.90
65044;DHT22;51617;48.158;16.464;2022-10-16T06:51:57;14.50;99.90
65044;DHT22;51617;48.158;16.464;2022-10-16T06:54:22;14.60;99.90
65044;DHT22;51617;48.158;16.464;2022-10-16T06:56:48;14.70;99.90
65044;DHT22;51617;48.158;16.464;2022-10-16T06:59:13;14.70;99.90
65044;DHT22;51617;48.158;16.464;2022-10-16T07:01:39;14.80;99.90
65044;DHT22;51617;48.158;16.464;2022-10-16T07:04:05;14.80;99.90
65044;DHT22;51617;48.158;16.464;2022-10-16T07:06:31;15.00;99.90
65044;DHT22;51617;48.158;16.464;2022-10-16T07:08:57;15.10;99.90
65044;DHT22;51617;48.158;16.464;2022-10-16T07:11:23;15.10;99.90
65044;DHT22;51617;48.158;16.464;2022-10-16T07:13:49;15.10;99.90
65044;DHT22;51617;48.158;16.464;2022-10-16T07:16:16;15.10;99.90
65044;DHT22;51617;48.158;16.464;2022-10-16T07:18:43;15.00;99.90
65044;DHT22;51617;48.158;16.464;2022-10-16T07:21:30;15.00;99.90
65044;DHT22;51617;48.158;16.464;2022-10-16T07:23:57;15.00;99.90
65044;DHT22;51617;48.158;16.464;2022-10-16T07:26:23;15.10;99.90
65044;DHT22;51617;48.158;16.464;2022-10-16T07:28:49;15.20;99.90
65044;DHT22;51617;48.158;16.464;2022-10-16T07:31:15;15.30;99.90
65044;DHT22;51617;48.158;16.464;2022-10-16T07:33:42;15.40;99.90
65044;DHT22;51617;48.158;16.464;2022-10-16T07:36:09;15.40;99.90
65044;DHT22;51617;48.158;16.464;2022-10-16T07:38:35;15.50;99.90
65044;DHT22;51617;48.158;16.464;2022-10-16T07:41:02;15.60;99.90
65044;DHT22;51617;48.158;16.464;2022-10-16T07:43:27;15.60;99.90
65044;DHT22;51617;48.158;16.464;2022-10-16T07:45:53;15.60;99.90
65044;DHT22;51617;48.158;16.464;2022-10-16T07:48:20;15.70;99.90
65044;DHT22;51617;48.158;16.464;2022-10-16T07:50:46;15.90;99.90
65044;DHT22;51617;48.158;16.464;2022-10-16T07:53:11;18.50;99.90
65044;DHT22;51617;48.158;16.464;2022-10-16T07:55:37;16.10;99.90
65044;DHT22;51617;48.158;16.464;2022-10-16T07:58:03;16.10;99.90
65044;DHT22;51617;48.158;16.464;2022-10-16T08:00:29;16.20;99.90
65044;DHT22;51617;48.158;16.464;2022-10-16T08:02:56;16.20;99.80
65044;DHT22;51617;48.158;16.464;2022-10-16T08:05:21;16.10;99.90
65044;DHT22;51617;48.158;16.464;2022-10-16T08:07:50;16.00;99.80
65044;DHT22;51617;48.158;16.464;2022-10-16T08:10:16;15.80;99.90
65044;DHT22;51617;48.158;16.464;2022-10-16T08:12:42;15.70;99.90
65044;DHT22;51617;48.158;16.464;2022-10-16T08:15:08;15.60;99.90
65044;DHT22;51617;48.158;16.464;2022-10-16T08:17:33;15.70;99.90
65044;DHT22;51617;48.158;16.464;2022-10-16T08:19:59;15.70;99.90
65044;DHT22;51617;48.158;16.464;2022-10-16T08:22:24;15.70;99.90
65044;DHT22;51617;48.158;16.464;2022-10-16T08:24:50;15.70;99.90
65044;DHT22;51617;48.158;16.464;2022-10-16T08:27:15;15.80;99.90
65044;DHT22;51617;48.158;16.464;2022-10-16T08:29:41;15.70;99.90
65044;DHT22;51617;48.158;16.464;2022-10-16T08:32:06;15.70;99.90
65044;DHT22;51617;48.158;16.464;2022-10-16T08:34:32;15.80;99.90
65044;DHT22;51617;48.158;16.464;2022-10-16T08:36:57;15.80;99.90
65044;DHT22;51617;48.158;16.464;2022-10-16T08:39:23;15.80;99.90
65044;DHT22;51617;48.158;16.464;2022-10-16T08:49:14;15.80;99.90
65044;DHT22;51617;48.158;16.464;2022-10-16T08:51:40;15.80;99.90
65044;DHT22;51617;48.158;16.464;2022-10-16T08:54:08;15.90;99.90
65044;DHT22;51617;48.158;16.464;2022-10-16T08:56:37;15.90;99.90
65044;DHT22;51617;48.158;16.464;2022-10-16T08:59:04;15.90;99.90
65044;DHT22;51617;48.158;16.464;2022-10-16T09:01:45;16.00;99.90
65044;DHT22;51617;48.158;16.464;2022-10-16T09:04:39;15.90;99.90
65044;DHT22;51617;48.158;16.464;2022-10-16T09:06:57;16.00;99.90
65044;DHT22;51617;48.158;16.464;2022-10-16T09:09:30;16.00;99.90
65044;DHT22;51617;48.158;16.464;2022-10-16T09:12:04;16.10;99.90
65044;DHT22;51617;48.158;16.464;2022-10-16T09:14:49;16.10;99.90
65044;DHT22;51617;48.158;16.464;2022-10-16T09:17:20;16.10;99.90
65044;DHT22;51617;48.158;16.464;2022-10-16T09:19:56;16.10;99.90
65044;DHT22;51617;48.158;16.464;2022-10-16T09:22:25;16.10;99.80
65044;DHT22;51617;48.158;16.464;2022-10-16T09:24:52;16.20;99.90
65044;DHT22;51617;48.158;16.464;2022-10-16T09:27:18;16.20;99.60
65044;DHT22;51617;48.158;16.464;2022-10-16T09:29:44;16.30;99.90
65044;DHT22;51617;48.158;16.464;2022-10-16T09:32:11;16.30;99.90
65044;DHT22;51617;48.158;16.464;2022-10-16T09:34:39;16.50;99.70
65044;DHT22;51617;48.158;16.464;2022-10-16T09:37:09;16.60;99.60
65044;DHT22;51617;48.158;16.464;2022-10-16T09:39:45;16.90;99.40
65044;DHT22;51617;48.158;16.464;2022-10-16T09:42:14;17.00;98.90
65044;DHT22;51617;48.158;16.464;2022-10-16T09:44:40;17.00;99.20
65044;DHT22;51617;48.158;16.464;2022-10-16T09:47:12;17.00;99.00
65044;DHT22;51617;48.158;16.464;2022-10-16T09:49:49;17.10;98.30
65044;DHT22;51617;48.158;16.464;2022-10-16T09:52:15;17.10;98.70
65044;DHT22;51617;48.158;16.464;2022-10-16T09:57:24;17.40;98.40
65044;DHT22;51617;48.158;16.464;2022-10-16T10:02:19;17.60;97.90
65044;DHT22;51617;48.158;16.464;2022-10-16T10:04:51;17.60;97.80
65044;DHT22;51617;48.158;16.464;2022-10-16T10:07:24;17.70;97.70
65044;DHT22;51617;48.158;16.464;2022-10-16T10:09:50;17.70;97.80
65044;DHT22;51617;48.158;16.464;2022-10-16T10:12:23;17.80;97.80
65044;DHT22;51617;48.158;16.464;2022-10-16T10:14:50;17.90;97.10
65044;DHT22;51617;48.158;16.464;2022-10-16T10:17:20;17.90;97.20
65044;DHT22;51617;48.158;16.464;2022-10-16T10:22:29;17.80;97.30
65044;DHT22;51617;48.158;16.464;2022-10-16T10:25:08;17.80;97.50
65044;DHT22;51617;48.158;16.464;2022-10-16T10:30:09;17.90;97.60
65044;DHT22;51617;48.158;16.464;2022-10-16T10:32:43;17.90;97.60
65044;DHT22;51617;48.158;16.464;2022-10-16T10:37:47;18.20;97.40
65044;DHT22;51617;48.158;16.464;2022-10-16T10:40:24;18.30;96.80
65044;DHT22;51617;48.158;16.464;2022-10-16T10:45:25;18.30;97.00
65044;DHT22;51617;48.158;16.464;2022-10-16T10:50:39;18.40;97.00
65044;DHT22;51617;48.158;16.464;2022-10-16T10:55:45;18.60;97.00
65044;DHT22;51617;48.158;16.464;2022-10-16T11:05:59;18.90;97.00
65044;DHT22;51617;48.158;16.464;2022-10-16T11:15:56;19.20;96.60
65044;DHT22;51617;48.158;16.464;2022-10-16T11:21:07;19.40;96.20
65044;DHT22;51617;48.158;16.464;2022-10-16T11:23:36;19.50;96.40
65044;DHT22;51617;48.158;16.464;2022-10-16T11:26:05;19.60;96.10
65044;DHT22;51617;48.158;16.464;2022-10-16T11:28:45;19.70;95.80
65044;DHT22;51617;48.158;16.464;2022-10-16T11:33:53;20.00;95.90
65044;DHT22;51617;48.158;16.464;2022-10-16T11:39:00;20.00;95.20
65044;DHT22;51617;48.158;16.464;2022-10-16T11:41:39;19.80;95.40
65044;DHT22;51617;48.158;16.464;2022-10-16T11:46:52;19.90;95.70
65044;DHT22;51617;48.158;16.464;2022-10-16T11:49:24;19.90;95.90
65044;DHT22;51617;48.158;16.464;2022-10-16T11:54:24;20.30;95.70
65044;DHT22;51617;48.158;16.464;2022-10-16T11:56:54;20.40;95.20
65044;DHT22;51617;48.158;16.464;2022-10-16T11:59:31;20.40;95.00
65044;DHT22;51617;48.158;16.464;2022-10-16T12:02:13;20.40;95.30
65044;DHT22;51617;48.158;16.464;2022-10-16T12:04:43;20.50;95.30
65044;DHT22;51617;48.158;16.464;2022-10-16T12:07:13;20.60;95.30
65044;DHT22;51617;48.158;16.464;2022-10-16T12:09:40;20.50;94.80
65044;DHT22;51617;48.158;16.464;2022-10-16T12:15:01;20.60;95.20
65044;DHT22;51617;48.158;16.464;2022-10-16T12:17:37;20.50;94.80
65044;DHT22;51617;48.158;16.464;2022-10-16T12:22:41;20.60;95.20
65044;DHT22;51617;48.158;16.464;2022-10-16T12:30:40;21.30;94.60
65044;DHT22;51617;48.158;16.464;2022-10-16T12:33:06;21.30;94.40
65044;DHT22;51617;48.158;16.464;2022-10-16T12:35:35;21.70;93.80
65044;DHT22;51617;48.158;16.464;2022-10-16T12:38:18;21.90;93.00
65044;DHT22;51617;48.158;16.464;2022-10-16T12:40:44;22.10;92.70
65044;DHT22;51617;48.158;16.464;2022-10-16T12:45:47;22.60;91.80
65044;DHT22;51617;48.158;16.464;2022-10-16T12:48:19;22.70;91.60
65044;DHT22;51617;48.158;16.464;2022-10-16T12:50:46;22.80;91.00
65044;DHT22;51617;48.158;16.464;2022-10-16T13:01:03;23.10;90.20
65044;DHT22;51617;48.158;16.464;2022-10-16T13:26:19;23.30;88.10
65044;DHT22;51617;48.158;16.464;2022-10-16T13:28:46;23.30;88.00
65044;DHT22;51617;48.158;16.464;2022-10-16T13:31:17;23.30;87.90
65044;DHT22;51617;48.158;16.464;2022-10-16T13:33:45;23.20;88.20
65044;DHT22;51617;48.158;16.464;2022-10-16T13:36:20;23.20;88.30
65044;DHT22;51617;48.158;16.464;2022-10-16T13:38:47;23.20;88.60
65044;DHT22;51617;48.158;16.464;2022-10-16T13:41:16;23.10;88.50
65044;DHT22;51617;48.158;16.464;2022-10-16T13:43:44;23.20;88.20
65044;DHT22;51617;48.158;16.464;2022-10-16T13:46:14;23.10;87.40
65044;DHT22;51617;48.158;16.464;2022-10-16T13:48:40;23.10;87.80
65044;DHT22;51617;48.158;16.464;2022-10-16T13:53:31;23.00;87.30
65044;DHT22;51617;48.158;16.464;2022-10-16T13:55:57;23.00;87.10
65044;DHT22;51617;48.158;16.464;2022-10-16T13:58:25;23.00;87.10
65044;DHT22;51617;48.158;16.464;2022-10-16T14:00:58;23.10;87.60
65044;DHT22;51617;48.158;16.464;2022-10-16T14:03:24;23.20;86.60
65044;DHT22;51617;48.158;16.464;2022-10-16T14:05:54;23.20;86.70
65044;DHT22;51617;48.158;16.464;2022-10-16T14:08:20;23.30;85.60
65044;DHT22;51617;48.158;16.464;2022-10-16T14:10:50;23.30;85.80
65044;DHT22;51617;48.158;16.464;2022-10-16T14:13:20;23.30;86.20
65044;DHT22;51617;48.158;16.464;2022-10-16T14:15:49;23.30;85.10
65044;DHT22;51617;48.158;16.464;2022-10-16T14:18:17;23.30;85.50
65044;DHT22;51617;48.158;16.464;2022-10-16T14:20:44;23.40;85.10
65044;DHT22;51617;48.158;16.464;2022-10-16T14:23:20;23.40;84.60
65044;DHT22;51617;48.158;16.464;2022-10-16T14:25:46;23.40;85.60
65044;DHT22;51617;48.158;16.464;2022-10-16T14:28:17;23.40;84.40
65044;DHT22;51617;48.158;16.464;2022-10-16T14:30:58;23.40;84.40
65044;DHT22;51617;48.158;16.464;2022-10-16T14:33:30;23.30;84.40
65044;DHT22;51617;48.158;16.464;2022-10-16T14:38:28;23.30;84.80
65044;DHT22;51617;48.158;16.464;2022-10-16T14:40:54;23.20;84.50
65044;DHT22;51617;48.158;16.464;2022-10-16T14:43:22;23.30;84.60
65044;DHT22;51617;48.158;16.464;2022-10-16T14:45:50;23.30;85.00
65044;DHT22;51617;48.158;16.464;2022-10-16T14:48:17;23.30;84.80
65044;DHT22;51617;48.158;16.464;2022-10-16T14:50:44;23.30;84.90
65044;DHT22;51617;48.158;16.464;2022-10-16T14:53:11;23.30;85.00
65044;DHT22;51617;48.158;16.464;2022-10-16T14:55:37;23.30;84.90
65044;DHT22;51617;48.158;16.464;2022-10-16T14:58:03;23.20;85.00
65044;DHT22;51617;48.158;16.464;2022-10-16T15:00:29;23.20;84.40
65044;DHT22;51617;48.158;16.464;2022-10-16T15:02:54;23.20;85.20
65044;DHT22;51617;48.158;16.464;2022-10-16T15:05:21;23.10;84.60
65044;DHT22;51617;48.158;16.464;2022-10-16T15:07:47;23.10;85.00
65044;DHT22;51617;48.158;16.464;2022-10-16T15:10:14;23.10;85.60
65044;DHT22;51617;48.158;16.464;2022-10-16T15:12:40;22.90;85.30
65044;DHT22;51617;48.158;16.464;2022-10-16T15:15:21;22.80;84.90
65044;DHT22;51617;48.158;16.464;2022-10-16T15:17:52;22.80;85.20
65044;DHT22;51617;48.158;16.464;2022-10-16T15:20:19;22.80;85.60
65044;DHT22;51617;48.158;16.464;2022-10-16T15:22:44;22.60;85.30
65044;DHT22;51617;48.158;16.464;2022-10-16T15:25:26;22.70;86.10
65044;DHT22;51617;48.158;16.464;2022-10-16T15:27:52;22.60;86.20
65044;DHT22;51617;48.158;16.464;2022-10-16T15:30:18;22.50;85.80
65044;DHT22;51617;48.158;16.464;2022-10-16T15:32:43;22.50;86.60
65044;DHT22;51617;48.158;16.464;2022-10-16T15:35:09;22.40;86.00
65044;DHT22;51617;48.158;16.464;2022-10-16T15:37:34;22.30;86.10
65044;DHT22;51617;48.158;16.464;2022-10-16T15:40:00;22.20;86.40
65044;DHT22;51617;48.158;16.464;2022-10-16T15:42:26;22.10;86.40
65044;DHT22;51617;48.158;16.464;2022-10-16T15:44:51;22.10;86.60
65044;DHT22;51617;48.158;16.464;2022-10-16T15:47:17;22.00;87.10
65044;DHT22;51617;48.158;16.464;2022-10-16T15:49:42;21.90;87.60
65044;DHT22;51617;48.158;16.464;2022-10-16T15:52:08;21.80;87.30
65044;DHT22;51617;48.158;16.464;2022-10-16T15:54:33;21.70;87.60
65044;DHT22;51617;48.158;16.464;2022-10-16T15:56:59;21.70;88.60
65044;DHT22;51617;48.158;16.464;2022-10-16T15:59:24;21.50;88.30
65044;DHT22;51617;48.158;16.464;2022-10-16T16:01:50;21.50;89.10
65044;DHT22;51617;48.158;16.464;2022-10-16T16:04:16;21.40;89.40
65044;DHT22;51617;48.158;16.464;2022-10-16T16:06:42;21.30;89.60
65044;DHT22;51617;48.158;16.464;2022-10-16T16:09:13;21.20;90.00
65044;DHT22;51617;48.158;16.464;2022-10-16T16:11:39;21.10;90.00
65044;DHT22;51617;48.158;16.464;2022-10-16T16:14:05;21.00;90.20
65044;DHT22;51617;48.158;16.464;2022-10-16T16:16:30;21.00;90.30
65044;DHT22;51617;48.158;16.464;2022-10-16T16:18:58;20.90;90.40
65044;DHT22;51617;48.158;16.464;2022-10-16T16:21:24;20.80;90.50
65044;DHT22;51617;48.158;16.464;2022-10-16T16:23:49;20.70;90.40
65044;DHT22;51617;48.158;16.464;2022-10-16T16:26:23;20.70;90.80
65044;DHT22;51617;48.158;16.464;2022-10-16T16:28:52;20.60;90.70
65044;DHT22;51617;48.158;16.464;2022-10-16T16:31:18;20.60;90.70
65044;DHT22;51617;48.158;16.464;2022-10-16T16:33:44;20.50;91.00
65044;DHT22;51617;48.158;16.464;2022-10-16T16:36:10;20.50;90.80
65044;DHT22;51617;48.158;16.464;2022-10-16T16:38:35;20.50;91.00
65044;DHT22;51617;48.158;16.464;2022-10-16T16:41:11;20.40;91.00
65044;DHT22;51617;48.158;16.464;2022-10-16T16:43:37;20.40;91.40
65044;DHT22;51617;48.158;16.464;2022-10-16T16:46:02;20.30;91.40
65044;DHT22;51617;48.158;16.464;2022-10-16T16:48:28;20.30;91.50
65044;DHT22;51617;48.158;16.464;2022-10-16T16:50:53;20.30;91.30
65044;DHT22;51617;48.158;16.464;2022-10-16T16:53:19;20.30;91.60
65044;DHT22;51617;48.158;16.464;2022-10-16T16:55:45;20.30;91.70
65044;DHT22;51617;48.158;16.464;2022-10-16T16:58:11;20.20;91.40
65044;DHT22;51617;48.158;16.464;2022-10-16T17:00:36;20.20;91.80
65044;DHT22;51617;48.158;16.464;2022-10-16T17:03:02;20.20;91.90
65044;DHT22;51617;48.158;16.464;2022-10-16T17:05:28;20.10;91.90
65044;DHT22;51617;48.158;16.464;2022-10-16T17:07:54;20.10;91.70
65044;DHT22;51617;48.158;16.464;2022-10-16T17:10:20;20.00;91.80
65044;DHT22;51617;48.158;16.464;2022-10-16T17:12:46;20.00;92.10
65044;DHT22;51617;48.158;16.464;2022-10-16T17:15:11;20.10;92.20
65044;DHT22;51617;48.158;16.464;2022-10-16T17:17:37;20.00;92.10
65044;DHT22;51617;48.158;16.464;2022-10-16T17:20:03;20.00;92.40